Time;durP1;ratioP1;P1;durP2;ratioP2;P2;SDS_P1;SDS_P2;PMS_P1;PMS_P2;Temp;Humidity;BMP_temperature;BMP_pressure;BME280_temperature;BME280_humidity;BME280_pressure;Samples;Min_cycle;Max_cycle;Signal;HPM_P1;HPM_P2
2022/04/09 00:00:21;;;;;;;9.63;3.00;;;;;;;13.24;78.77;96349.66;4535710;31;20079;-75
2022/04/09 00:02:48;;;;;;;6.97;2.47;;;;;;;13.56;77.12;96353.06;4535915;31;20434;-75
2022/04/09 00:05:15;;;;;;;6.78;2.40;;;;;;;13.92;75.64;96350.97;4535834;31;20103;-75
2022/04/09 00:07:43;;;;;;;7.50;2.40;;;;;;;13.82;77.51;96361.31;4535801;31;20084;-75
2022/04/09 00:10:12;;;;;;;8.80;2.33;;;;;;;14.54;75.93;96357.03;4521563;31;20142;-75
2022/04/09 00:12:39;;;;;;;7.35;2.45;;;;;;;13.88;79.31;96359.97;4535953;31;20143;-75
2022/04/09 00:15:07;;;;;;;7.50;2.72;;;;;;;13.60;81.83;96346.66;4521361;31;20095;-75
2022/04/09 00:17:44;;;;;;;8.98;2.60;;;;;;;13.29;84.13;96348.34;4535852;31;20166;-75
2022/04/09 00:20:13;;;;;;;8.95;2.53;;;;;;;12.88;86.94;96343.03;4535632;31;20194;-75
2022/04/09 00:22:40;;;;;;;8.90;3.65;;;;;;;12.99;87.60;96341.22;4535929;31;20095;-75
2022/04/09 00:25:13;;;;;;;9.32;3.20;;;;;;;12.89;89.77;96339.50;4535763;31;20113;-75
2022/04/09 00:27:41;;;;;;;8.02;2.58;;;;;;;12.73;90.01;96334.69;4535555;31;20142;-75
2022/04/09 00:30:09;;;;;;;7.15;2.62;;;;;;;12.65;91.21;96324.09;4521442;31;20147;-75
2022/04/09 00:32:36;;;;;;;11.52;3.10;;;;;;;12.78;91.47;96316.22;4535792;31;20179;-75
2022/04/09 00:35:05;;;;;;;9.25;2.90;;;;;;;12.67;91.44;96314.47;4535224;31;20126;-75
2022/04/09 00:37:40;;;;;;;9.18;3.00;;;;;;;12.62;92.48;96307.06;4535731;31;20125;-75
2022/04/09 00:40:07;;;;;;;10.07;3.17;;;;;;;12.29;94.72;96315.69;4535732;31;20146;-75
2022/04/09 00:42:34;;;;;;;9.52;3.08;;;;;;;12.90;92.46;96307.47;4520939;31;20455;-75
2022/04/09 00:45:01;;;;;;;8.43;2.80;;;;;;;12.21;95.55;96302.50;4535690;31;20087;-75
2022/04/09 00:47:28;;;;;;;7.00;2.95;;;;;;;12.15;96.07;96290.91;4535604;31;20153;-75
2022/04/09 00:49:55;;;;;;;7.75;3.00;;;;;;;12.65;93.70;96293.91;4535408;31;20105;-75
2022/04/09 00:52:24;;;;;;;10.18;3.20;;;;;;;12.74;93.05;96284.56;4535719;31;20111;-75
2022/04/09 00:54:51;;;;;;;12.77;3.20;;;;;;;12.91;92.01;96275.47;4534954;31;20166;-75
2022/04/09 00:57:19;;;;;;;8.40;3.05;;;;;;;12.95;92.05;96256.16;4521142;31;20143;-75
2022/04/09 00:59:49;;;;;;;10.02;3.58;;;;;;;13.25;90.20;96261.47;4521216;31;20082;-75
2022/04/09 01:02:17;;;;;;;9.18;3.28;;;;;;;13.13;91.51;96249.50;4520968;31;20148;-75
2022/04/09 01:04:44;;;;;;;8.30;3.40;;;;;;;13.40;90.43;96249.03;4535550;31;20147;-75
2022/04/09 01:07:12;;;;;;;10.63;3.65;;;;;;;13.04;91.89;96251.06;4535439;31;20107;-75
2022/04/09 01:09:39;;;;;;;11.60;3.45;;;;;;;12.95;92.63;96241.44;4520929;31;20131;-75
2022/04/09 01:12:07;;;;;;;9.73;3.37;;;;;;;13.06;92.45;96235.37;4535559;31;20139;-75
2022/04/09 01:14:35;;;;;;;9.25;3.17;;;;;;;13.53;90.06;96235.91;4535349;31;20139;-75
2022/04/09 01:17:03;;;;;;;11.73;3.70;;;;;;;13.35;90.57;96240.81;4535230;31;20087;-75
2022/04/09 01:19:30;;;;;;;10.65;3.37;;;;;;;13.56;89.54;96238.22;4535385;31;20071;-75
2022/04/09 01:22:00;;;;;;;10.23;3.42;;;;;;;13.75;88.85;96227.16;4520985;31;20099;-75
2022/04/09 01:24:27;;;;;;;9.25;4.07;;;;;;;13.88;87.75;96232.94;4535031;31;20150;-75
2022/04/09 01:26:54;;;;;;;11.85;3.90;;;;;;;13.04;92.48;96221.75;4535397;31;20178;-75
2022/04/09 01:29:21;;;;;;;10.70;3.90;;;;;;;13.26;91.54;96232.03;4535347;31;20127;-75
2022/04/09 01:31:48;;;;;;;9.35;3.58;;;;;;;13.48;90.78;96246.62;4535016;31;20155;-75
2022/04/09 01:34:16;;;;;;;11.25;3.95;;;;;;;13.62;89.88;96223.94;4535249;31;20099;-76
2022/04/09 01:36:43;;;;;;;9.73;4.20;;;;;;;12.77;93.91;96222.25;4535365;31;20101;-75
2022/04/09 01:39:10;;;;;;;10.52;4.80;;;;;;;12.72;95.35;96230.34;4535042;31;20505;-75
2022/04/09 01:41:37;;;;;;;9.93;4.18;;;;;;;12.37;97.71;96232.34;4535347;31;20127;-75
2022/04/09 01:44:04;;;;;;;10.05;4.10;;;;;;;12.51;97.21;96220.91;4520612;31;20163;-76
2022/04/09 01:46:31;;;;;;;10.30;3.97;;;;;;;12.41;97.33;96231.97;4535150;31;20107;-75
2022/04/09 01:48:58;;;;;;;10.65;4.40;;;;;;;12.01;99.50;96223.91;4535334;31;20083;-76
2022/04/09 01:51:25;;;;;;;10.68;4.12;;;;;;;12.04;100.00;96225.44;4534950;31;20151;-75
2022/04/09 01:53:52;;;;;;;10.48;3.95;;;;;;;11.95;100.00;96232.16;4535093;31;20096;-75
2022/04/09 01:56:19;;;;;;;11.20;4.43;;;;;;;11.86;100.00;96230.25;4535016;31;20157;-75
2022/04/09 01:58:46;;;;;;;10.85;4.07;;;;;;;12.11;100.00;96236.94;4534837;31;20108;-75
2022/04/09 02:01:17;;;;;;;10.68;4.65;;;;;;;12.44;99.51;96229.16;4535169;31;20104;-75
2022/04/09 02:03:44;;;;;;;12.10;4.37;;;;;;;12.88;96.36;96232.56;4535194;31;20139;-75
2022/04/09 02:06:11;;;;;;;10.75;4.35;;;;;;;12.31;99.20;96241.38;4534723;31;20109;-75
2022/04/09 02:08:38;;;;;;;10.93;4.50;;;;;;;11.83;100.00;96233.91;4535204;31;20088;-75
2022/04/09 02:11:05;;;;;;;13.27;5.20;;;;;;;12.06;100.00;96245.06;4535135;31;20087;-75
2022/04/09 02:13:32;;;;;;;11.95;4.82;;;;;;;11.57;100.00;96235.84;4534723;31;20139;-75
2022/04/09 02:15:59;;;;;;;12.88;5.32;;;;;;;11.33;100.00;96242.03;4534764;31;20099;-75
2022/04/09 02:18:26;;;;;;;13.30;5.43;;;;;;;11.35;100.00;96247.91;4520758;31;20087;-75
2022/04/09 02:20:55;;;;;;;13.25;5.50;;;;;;;11.32;100.00;96228.31;4534072;31;20158;-75
2022/04/09 02:23:22;;;;;;;14.38;5.72;;;;;;;11.56;100.00;96236.78;4535022;31;20465;-75
2022/04/09 02:25:49;;;;;;;12.93;6.12;;;;;;;11.42;100.00;96236.19;4534820;31;20126;-75
2022/04/09 02:28:16;;;;;;;11.60;5.40;;;;;;;11.60;100.00;96227.06;4520211;31;20121;-75
2022/04/09 02:30:43;;;;;;;21.83;5.22;;;;;;;12.06;100.00;96233.91;4534969;31;20092;-75
2022/04/09 02:33:10;;;;;;;9.13;4.07;;;;;;;11.80;100.00;96221.25;4520190;31;20117;-75
2022/04/09 02:35:37;;;;;;;14.77;6.18;;;;;;;12.15;100.00;96228.84;4534629;31;20372;-75
2022/04/09 02:38:04;;;;;;;13.98;6.12;;;;;;;11.85;100.00;96223.47;4534926;31;20553;-75
2022/04/09 02:40:31;;;;;;;14.65;6.90;;;;;;;12.10;100.00;96223.19;4534465;31;20102;-75
2022/04/09 02:42:58;;;;;;;15.00;6.70;;;;;;;11.82;100.00;96232.28;4534769;31;20466;-75
2022/04/09 02:45:25;;;;;;;;;;;;;;;12.02;100.00;96223.00;4534821;31;20158;-75
2022/04/09 02:47:52;;;;;;;13.60;6.80;;;;;;;11.80;100.00;96218.66;4534425;31;19962;-75
2022/04/09 02:50:19;;;;;;;13.55;6.07;;;;;;;11.66;100.00;96213.66;4520263;31;20178;-75
2022/04/09 02:52:46;;;;;;;13.25;5.97;;;;;;;11.92;100.00;96210.91;4534674;31;20122;-75
2022/04/09 02:55:13;;;;;;;16.87;7.12;;;;;;;11.63;100.00;96206.16;4533772;31;20123;-75
2022/04/09 02:57:40;;;;;;;11.00;4.72;;;;;;;11.55;100.00;96211.91;4520184;31;20115;-75
2022/04/09 03:00:11;;;;;;;16.10;6.82;;;;;;;11.78;100.00;96210.12;4534552;31;20195;-75
2022/04/09 03:02:39;;;;;;;9.27;4.03;;;;;;;11.67;100.00;96202.38;4520049;31;20125;-75
2022/04/09 03:05:07;;;;;;;11.68;5.90;;;;;;;11.83;100.00;96202.91;4520186;31;20497;-75
2022/04/09 03:07:34;;;;;;;13.82;6.40;;;;;;;11.48;100.00;96210.72;4534337;31;20147;-75
2022/04/09 03:10:02;;;;;;;14.65;7.95;;;;;;;11.58;100.00;96231.50;4534112;31;20543;-75
2022/04/09 03:12:29;;;;;;;13.38;6.50;;;;;;;11.37;100.00;96244.25;4534355;31;20102;-75
2022/04/09 03:14:56;;;;;;;11.00;5.22;;;;;;;11.03;100.00;96243.34;4534114;31;20134;-75
2022/04/09 03:17:23;;;;;;;;;;;;;;;11.09;100.00;96255.81;4534303;31;20087;-75
2022/04/09 03:19:50;;;;;;;10.65;3.83;;;;;;;10.63;100.00;96256.56;4534328;31;20015;-75
2022/04/09 03:22:17;;;;;;;9.18;3.00;;;;;;;10.65;100.00;96277.09;4533894;31;20599;-75
2022/04/09 03:24:44;;;;;;;9.52;3.78;;;;;;;10.77;100.00;96280.53;4533988;31;20150;-75
2022/04/09 03:27:11;;;;;;;6.50;2.25;;;;;;;10.58;100.00;96297.31;4534002;31;20410;-75
2022/04/09 03:29:39;;;;;;;8.05;2.80;;;;;;;10.41;100.00;96298.47;4533739;31;20080;-75
2022/04/09 03:32:07;;;;;;;11.57;3.58;;;;;;;10.37;100.00;96302.22;4534112;31;20087;-75
2022/04/09 03:34:34;;;;;;;14.05;5.37;;;;;;;10.27;100.00;96303.78;4521117;31;20095;-75
2022/04/09 03:37:01;;;;;;;12.88;4.85;;;;;;;10.35;100.00;96311.00;4535889;31;20458;-75
2022/04/09 03:39:28;;;;;;;9.57;2.58;;;;;;;10.27;100.00;96306.38;4521864;31;20114;-75
2022/04/09 03:41:55;;;;;;;3.58;1.52;;;;;;;10.00;100.00;96298.75;4536327;31;20115;-75
2022/04/09 03:44:42;;;;;;;2.70;1.15;;;;;;;9.75;100.00;96288.44;4535850;31;20091;-75
2022/04/09 03:47:09;;;;;;;6.57;2.37;;;;;;;9.86;100.00;96273.91;4536204;31;20580;-75
2022/04/09 03:49:36;;;;;;;4.62;2.10;;;;;;;10.44;100.00;96274.25;4536104;31;20115;-75
2022/04/09 03:52:03;;;;;;;5.45;2.08;;;;;;;10.69;100.00;96278.50;4535826;31;20082;-75
2022/04/09 03:54:32;;;;;;;3.97;1.50;;;;;;;10.83;100.00;96264.59;4521473;31;20107;-75
2022/04/09 03:56:59;;;;;;;3.28;1.27;;;;;;;10.45;100.00;96257.03;4535928;31;20421;-75
2022/04/09 03:59:25;;;;;;;1.50;0.88;;;;;;;10.59;100.00;96243.97;4535742;31;20083;-75
2022/04/09 04:01:52;;;;;;;1.48;1.00;;;;;;;10.45;100.00;96234.66;4536181;31;20162;-75
2022/04/09 04:04:21;;;;;;;2.55;1.00;;;;;;;10.50;100.00;96221.41;4535576;31;20095;-75
2022/04/09 04:06:48;;;;;;;0.62;0.60;;;;;;;10.59;100.00;96221.59;4536038;31;20101;-75
2022/04/09 04:09:16;;;;;;;0.77;0.70;;;;;;;10.19;100.00;96218.41;4535925;31;20497;-75
2022/04/09 04:11:44;;;;;;;1.00;0.47;;;;;;;10.26;99.99;96216.25;4521323;31;20138;-75
2022/04/09 04:14:11;;;;;;;0.70;0.60;;;;;;;10.43;99.12;96206.41;4535648;31;20130;-75
2022/04/09 04:16:39;;;;;;;1.23;0.80;;;;;;;10.44;98.21;96214.97;4535954;31;20093;-75
2022/04/09 04:19:06;;;;;;;0.40;0.40;;;;;;;10.43;97.68;96196.09;4535525;31;20088;-75
2022/04/09 04:21:33;;;;;;;1.25;0.60;;;;;;;10.09;99.35;96204.50;4535934;31;20204;-75
2022/04/09 04:23:59;;;;;;;;;;;;;;;10.54;97.79;96209.97;4536146;31;20126;-75
2022/04/09 04:26:26;;;;;;;3.05;1.10;;;;;;;10.69;96.39;96204.53;4535551;31;19975;-75
2022/04/09 04:28:53;;;;;;;2.40;0.90;;;;;;;10.93;95.46;96211.41;4535918;31;20143;-75
2022/04/09 04:31:20;;;;;;;1.50;1.00;;;;;;;10.31;98.74;96211.59;4535805;31;20496;-75
2022/04/09 04:33:47;;;;;;;1.92;1.17;;;;;;;10.67;97.65;96214.13;4535329;31;20089;-75
2022/04/09 04:36:14;;;;;;;3.55;1.40;;;;;;;10.68;98.26;96217.53;4535659;31;20174;-75
2022/04/09 04:38:41;;;;;;;4.22;1.30;;;;;;;10.80;99.09;96216.66;4535782;31;20143;-75
2022/04/09 04:41:08;;;;;;;3.15;1.30;;;;;;;10.70;99.90;96221.63;4535420;31;20102;-75
2022/04/09 04:43:35;;;;;;;;;;;;;;;10.51;100.00;96215.34;4521660;31;20091;-75
2022/04/09 04:46:02;;;;;;;3.12;1.62;;;;;;;10.43;100.00;96218.47;4535320;31;20011;-75
2022/04/09 04:48:29;;;;;;;5.95;1.70;;;;;;;10.42;100.00;96220.22;4521202;31;20103;-75
2022/04/09 04:50:56;;;;;;;4.43;1.87;;;;;;;10.13;100.00;96211.13;4521341;31;20445;-75
2022/04/09 04:53:23;;;;;;;;;;;;;;;10.12;100.00;96223.19;4535727;31;20135;-75
2022/04/09 04:55:50;;;;;;;6.70;1.95;;;;;;;10.43;100.00;96211.56;4535281;31;19967;-75
2022/04/09 04:58:19;;;;;;;5.45;2.30;;;;;;;10.19;100.00;96208.09;4535584;31;20446;-75
2022/04/09 05:00:46;;;;;;;5.93;2.10;;;;;;;10.39;100.00;96201.56;4535295;31;20099;-75
2022/04/09 05:03:13;;;;;;;4.93;1.80;;;;;;;10.13;100.00;96211.94;4535672;31;20142;-75
2022/04/09 05:05:40;;;;;;;5.22;1.55;;;;;;;9.97;100.00;96210.53;4520853;31;20477;-75
2022/04/09 05:08:09;;;;;;;4.57;1.12;;;;;;;10.46;100.00;96214.84;4535351;31;20110;-75
2022/04/09 05:10:36;;;;;;;4.00;1.62;;;;;;;10.24;100.00;96207.81;4535626;31;20111;-75
2022/04/09 05:13:03;;;;;;;4.57;2.20;;;;;;;10.13;100.00;96205.97;4535590;31;20097;-75
2022/04/09 05:15:31;;;;;;;5.93;2.35;;;;;;;10.09;100.00;96213.06;4520564;31;20190;-75
2022/04/09 05:18:00;;;;;;;7.60;2.67;;;;;;;9.95;100.00;96205.47;4535617;31;20091;-75
2022/04/09 05:20:27;;;;;;;7.03;3.15;;;;;;;10.24;100.00;96207.81;4535555;31;20497;-75
2022/04/09 05:22:54;;;;;;;7.35;2.47;;;;;;;10.19;100.00;96187.47;4535173;31;20135;-75
2022/04/09 05:25:21;;;;;;;5.82;2.62;;;;;;;10.13;100.00;96203.38;4535120;31;20174;-75
2022/04/09 05:27:49;;;;;;;8.20;3.12;;;;;;;10.10;100.00;96203.56;4535566;31;20456;-75
2022/04/09 05:30:17;;;;;;;4.07;1.85;;;;;;;10.54;100.00;96225.44;4520811;31;20127;-75
2022/04/09 05:32:44;;;;;;;6.18;2.20;;;;;;;10.57;100.00;96238.94;4521110;31;20094;-75
2022/04/09 05:35:12;;;;;;;5.15;2.10;;;;;;;10.59;100.00;96256.88;4535048;31;20186;-75
2022/04/09 05:37:45;;;;;;;6.40;2.30;;;;;;;10.22;100.00;96262.06;4535200;31;20142;-75
2022/04/09 05:40:12;;;;;;;6.30;2.40;;;;;;;10.76;100.00;96274.56;4521143;31;20414;-75
2022/04/09 05:42:39;;;;;;;7.40;3.00;;;;;;;10.62;100.00;96270.38;4520626;31;20496;-75
2022/04/09 05:45:07;;;;;;;3.03;1.40;;;;;;;10.66;100.00;96271.81;4535183;31;20097;-75
2022/04/09 05:47:39;;;;;;;5.47;2.20;;;;;;;10.61;100.00;96279.03;4535396;31;20125;-75
2022/04/09 05:50:06;;;;;;;7.40;2.55;;;;;;;10.55;100.00;96281.25;4535070;31;20083;-75
2022/04/09 05:52:33;;;;;;;7.20;2.22;;;;;;;10.64;100.00;96283.19;4535256;31;20135;-75
2022/04/09 05:55:03;;;;;;;6.55;2.50;;;;;;;10.23;100.00;96289.47;4534737;31;20139;-75
2022/04/09 05:57:31;;;;;;;6.18;2.22;;;;;;;10.24;100.00;96280.00;4519783;31;20155;-75
2022/04/09 05:59:58;;;;;;;2.92;1.50;;;;;;;10.61;100.00;96278.22;4535316;31;20127;-75
2022/04/09 06:02:25;;;;;;;5.12;1.42;;;;;;;10.52;100.00;96286.59;4520820;31;20159;-75
2022/04/09 06:04:52;;;;;;;6.85;2.58;;;;;;;10.47;100.00;96297.25;4534765;31;20418;-75
2022/04/09 06:07:19;;;;;;;6.53;2.47;;;;;;;10.55;100.00;96294.13;4520731;31;20207;-75
2022/04/09 06:09:49;;;;;;;;;;;;;;;10.56;100.00;96290.63;4535556;31;20109;-75
2022/04/09 06:12:16;;;;;;;5.90;2.28;;;;;;;10.62;100.00;96301.31;4534851;31;20488;-75
2022/04/09 06:14:43;;;;;;;5.65;2.33;;;;;;;10.36;100.00;96300.56;4534879;31;20167;-75
2022/04/09 06:17:09;;;;;;;;;;;;;;;10.26;100.00;96299.56;4535385;31;20151;-75
2022/04/09 06:19:36;;;;;;;7.07;2.65;;;;;;;10.37;100.00;96314.28;4520449;31;19983;-75
2022/04/09 06:22:03;;;;;;;;;;;;;;;10.49;100.00;96310.84;4535381;31;20447;-75
2022/04/09 06:24:30;;;;;;;5.12;2.00;;;;;;;10.29;100.00;96316.56;4534908;31;19967;-75
2022/04/09 06:26:58;;;;;;;6.53;2.45;;;;;;;10.52;100.00;96318.38;4534643;31;20109;-75
2022/04/09 06:29:25;;;;;;;8.25;2.70;;;;;;;10.66;100.00;96331.12;4520723;31;20087;-75
2022/04/09 06:31:52;;;;;;;7.95;2.47;;;;;;;10.58;100.00;96325.69;4534724;31;20083;-75
2022/04/09 06:34:19;;;;;;;8.90;2.62;;;;;;;10.82;100.00;96340.34;4534809;31;20095;-75
2022/04/09 06:36:46;;;;;;;6.30;2.75;;;;;;;10.58;100.00;96338.56;4534782;31;20179;-75
2022/04/09 06:39:13;;;;;;;;;;;;;;;10.72;100.00;96338.44;4534849;31;20095;-75
2022/04/09 06:41:42;;;;;;;6.10;1.90;;;;;;;11.07;100.00;96340.28;4520509;31;20001;-75
2022/04/09 06:44:11;;;;;;;6.95;3.00;;;;;;;10.81;100.00;96334.37;4520600;31;20140;-75
2022/04/09 06:46:40;;;;;;;8.35;2.90;;;;;;;11.00;100.00;96346.81;4534341;31;20369;-75
2022/04/09 06:49:07;;;;;;;7.18;3.33;;;;;;;11.42;100.00;96362.72;4534772;31;20129;-75
2022/04/09 06:51:33;;;;;;;;;;;;;;;11.25;100.00;96354.41;4535062;31;20075;-75
2022/04/09 06:54:00;;;;;;;13.02;5.87;;;;;;;11.61;100.00;96368.19;4534285;31;19980;-76
2022/04/09 06:56:27;;;;;;;8.68;2.55;;;;;;;11.22;100.00;96357.22;4534504;31;20147;-75
2022/04/09 06:58:54;;;;;;;8.63;2.47;;;;;;;10.98;100.00;96364.97;4534529;31;20170;-75
2022/04/09 07:01:21;;;;;;;7.03;1.48;;;;;;;10.97;100.00;96383.16;4534226;31;20445;-75
2022/04/09 07:03:48;;;;;;;4.35;1.80;;;;;;;11.02;100.00;96393.97;4534516;31;20083;-76
2022/04/09 07:06:21;;;;;;;3.92;1.83;;;;;;;10.04;100.00;96412.72;4534349;31;20175;-75
2022/04/09 07:08:48;;;;;;;6.72;2.42;;;;;;;9.43;100.00;96427.84;4535825;31;20121;-75
2022/04/09 07:11:15;;;;;;;4.95;2.28;;;;;;;9.27;100.00;96443.44;4536476;31;20087;-75
2022/04/09 07:13:42;;;;;;;6.95;2.42;;;;;;;8.96;100.00;96447.09;4521691;31;20166;-75
2022/04/09 07:16:08;;;;;;;;;;;;;;;9.18;100.00;96458.63;4536544;31;20105;-75
2022/04/09 07:18:36;;;;;;;4.43;1.73;;;;;;;9.26;100.00;96454.66;4536499;31;19990;-75
2022/04/09 07:21:03;;;;;;;4.32;1.90;;;;;;;9.23;100.00;96469.44;4508488;31;20649;-75
2022/04/09 07:23:30;;;;;;;6.72;2.08;;;;;;;9.32;100.00;96481.75;4536343;31;20071;-75
2022/04/09 07:25:57;;;;;;;;;;;;;;;9.18;100.00;96480.03;4522025;31;20417;-75
2022/04/09 07:28:23;;;;;;;1.00;0.70;;;;;;;9.42;100.00;96487.16;4521772;31;19996;-75
2022/04/09 07:30:50;;;;;;;3.22;0.85;;;;;;;9.44;100.00;96483.56;4536279;31;20083;-75
2022/04/09 07:33:17;;;;;;;2.33;0.40;;;;;;;9.31;100.00;96467.22;4536243;31;20376;-75
2022/04/09 07:35:44;;;;;;;6.10;1.02;;;;;;;9.62;100.00;96468.69;4535715;31;20155;-75
2022/04/09 07:38:11;;;;;;;2.20;0.70;;;;;;;9.87;100.00;96478.22;4536327;31;20109;-75
2022/04/09 07:40:38;;;;;;;;;;;;;;;10.15;100.00;96493.56;4536517;31;20393;-75
2022/04/09 07:43:05;;;;;;;5.82;0.90;;;;;;;10.27;100.00;96481.66;4536034;31;20030;-75
2022/04/09 07:45:32;;;;;;;2.83;0.60;;;;;;;10.22;100.00;96478.56;4535964;31;20419;-75
2022/04/09 07:48:00;;;;;;;1.25;0.52;;;;;;;9.84;100.00;96486.16;4536295;31;20100;-75
2022/04/09 07:50:28;;;;;;;0.57;0.50;;;;;;;9.52;100.00;96475.34;4521393;31;20497;-75
2022/04/09 07:52:55;;;;;;;0.30;0.30;;;;;;;9.73;100.00;96486.03;4536187;31;20155;-75
2022/04/09 07:55:23;;;;;;;0.95;0.40;;;;;;;9.79;100.00;96491.62;4521327;31;20115;-75
2022/04/09 07:57:51;;;;;;;0.40;0.40;;;;;;;10.09;96.94;96487.97;4535808;31;20110;-75
2022/04/09 08:00:19;;;;;;;1.08;0.45;;;;;;;10.22;98.25;96493.19;4536042;31;20162;-75
2022/04/09 08:02:46;;;;;;;0.47;0.40;;;;;;;10.48;96.46;96488.88;4521675;31;20101;-75
2022/04/09 08:05:15;;;;;;;0.68;0.57;;;;;;;10.47;96.36;96493.22;4535693;31;20095;-76
2022/04/09 08:07:42;;;;;;;0.50;0.40;;;;;;;11.02;92.85;96498.03;4521842;31;20156;-76
2022/04/09 08:10:11;;;;;;;1.95;0.55;;;;;;;10.91;93.10;96504.84;4535717;31;20099;-75
2022/04/09 08:12:38;;;;;;;0.50;0.50;;;;;;;10.75;93.86;96507.66;4521780;31;20397;-75
2022/04/09 08:15:06;;;;;;;1.00;0.43;;;;;;;11.06;91.20;96496.06;4521433;31;20099;-75
2022/04/09 08:17:33;;;;;;;0.50;0.43;;;;;;;10.81;91.08;96499.50;4535593;31;20117;-75
2022/04/09 08:20:00;;;;;;;0.62;0.40;;;;;;;10.66;91.06;96496.22;4521046;31;20083;-75
2022/04/09 08:22:28;;;;;;;0.30;0.30;;;;;;;10.52;93.39;96492.88;4535928;31;20080;-75
2022/04/09 08:24:56;;;;;;;2.75;0.57;;;;;;;10.34;92.10;96482.06;4535504;31;20150;-75
2022/04/09 08:27:23;;;;;;;0.90;0.50;;;;;;;10.41;90.99;96489.28;4535848;31;20183;-75
2022/04/09 08:29:50;;;;;;;0.85;0.50;;;;;;;10.52;90.76;96505.78;4535845;31;20105;-75
2022/04/09 08:32:18;;;;;;;2.90;0.75;;;;;;;10.45;92.82;96515.69;4535546;31;20108;-75
2022/04/09 08:34:44;;;;;;;1.12;0.70;;;;;;;10.30;93.01;96542.47;4535752;31;20602;-75
2022/04/09 08:37:12;;;;;;;1.00;0.60;;;;;;;10.17;95.36;96563.03;4535772;31;20095;-75
2022/04/09 08:39:39;;;;;;;1.15;0.70;;;;;;;9.50;92.73;96570.72;4535484;31;20083;-75
2022/04/09 08:42:06;;;;;;;2.10;0.95;;;;;;;8.91;94.90;96590.59;4535809;31;20142;-75
2022/04/09 08:44:36;;;;;;;1.20;0.80;;;;;;;8.67;95.26;96597.16;4535755;31;20146;-76
2022/04/09 08:47:03;;;;;;;0.90;0.70;;;;;;;8.80;95.39;96623.00;4521216;31;20095;-75
2022/04/09 08:49:33;;;;;;;1.25;0.73;;;;;;;8.64;96.47;96641.91;4535812;31;20083;-75
2022/04/09 08:52:00;;;;;;;0.80;0.80;;;;;;;8.92;94.76;96653.97;4535500;31;20124;-75
2022/04/09 08:54:29;;;;;;;2.37;1.08;;;;;;;8.85;94.77;96665.56;4521080;31;20107;-76
2022/04/09 08:56:56;;;;;;;1.00;0.80;;;;;;;8.53;94.63;96672.53;4535426;31;20091;-76
2022/04/09 08:59:25;;;;;;;0.90;0.80;;;;;;;8.57;90.77;96662.87;4535349;31;20463;-76
2022/04/09 09:01:52;;;;;;;1.90;0.85;;;;;;;8.61;92.12;96713.22;4535584;31;20472;-76
2022/04/09 09:04:20;;;;;;;1.25;0.80;;;;;;;8.40;91.93;96710.13;4535484;31;20130;-75
2022/04/09 09:06:47;;;;;;;1.55;0.95;;;;;;;8.04;89.11;96712.91;4535244;31;20159;-75
2022/04/09 09:09:29;;;;;;;3.92;2.15;;;;;;;7.64;91.85;96716.75;4521322;31;20102;-75
2022/04/09 09:12:00;;;;;;;1.77;1.20;;;;;;;7.28;93.41;96738.25;4535663;31;20451;-75
2022/04/09 09:14:38;;;;;;;1.48;1.20;;;;;;;7.36;92.20;96750.72;4535198;31;20094;-75
2022/04/09 09:17:05;;;;;;;3.10;1.50;;;;;;;7.10;92.37;96741.75;4535412;31;20083;-75
2022/04/09 09:19:45;;;;;;;;;;;;;;;6.72;93.89;96741.88;4535853;31;20437;-75
2022/04/09 09:22:12;;;;;;;4.28;2.00;;;;;;;7.04;92.16;96760.00;4535243;31;20026;-75
2022/04/09 09:24:40;;;;;;;4.87;2.25;;;;;;;6.81;93.58;96781.62;4535325;31;20406;-75
2022/04/09 09:27:07;;;;;;;4.07;1.95;;;;;;;6.93;93.09;96789.56;4520751;31;20438;-75
2022/04/09 09:29:36;;;;;;;3.80;1.92;;;;;;;6.90;92.53;96792.25;4535503;31;20166;-75
2022/04/09 09:32:06;;;;;;;6.03;2.50;;;;;;;6.54;91.68;96788.88;4519982;31;20163;-75
2022/04/09 09:34:33;;;;;;;4.72;2.40;;;;;;;6.58;92.18;96796.34;4534991;31;20504;-75
2022/04/09 09:37:00;;;;;;;5.25;2.50;;;;;;;6.56;93.86;96807.56;4520862;31;20094;-75
2022/04/09 09:39:27;;;;;;;;;;;;;;;6.61;91.29;96803.09;4535771;31;20083;-75
2022/04/09 09:42:03;;;;;;;6.18;2.45;;;;;;;6.51;90.63;96797.56;4535153;31;20041;-75
2022/04/09 09:44:32;;;;;;;4.75;2.20;;;;;;;6.49;90.37;96781.44;4535249;31;20098;-75
2022/04/09 09:47:07;;;;;;;6.57;2.80;;;;;;;6.41;91.86;96780.09;4535270;31;20107;-75
2022/04/09 09:49:40;;;;;;;7.20;3.10;;;;;;;6.60;91.78;96786.03;4520583;31;20106;-75
2022/04/09 09:52:09;;;;;;;6.50;2.92;;;;;;;6.34;92.54;96777.00;4521079;31;20437;-75
2022/04/09 09:54:56;;;;;;;8.82;3.30;;;;;;;6.35;92.17;96783.78;4520586;31;20104;-75
2022/04/09 09:57:26;;;;;;;6.78;3.25;;;;;;;6.30;93.16;96801.09;4534751;31;20381;-75
2022/04/09 10:00:04;;;;;;;7.93;3.20;;;;;;;6.36;93.76;96801.63;4535343;31;20082;-75
2022/04/09 10:02:33;;;;;;;8.32;3.40;;;;;;;6.53;93.24;96808.56;4535000;31;20103;-75
2022/04/09 10:05:00;;;;;;;6.80;2.58;;;;;;;6.18;92.46;96786.28;4535143;31;20103;-75
2022/04/09 10:07:27;;;;;;;8.55;3.78;;;;;;;6.16;93.35;96785.50;4535216;31;20104;-75
2022/04/09 10:09:53;;;;;;;7.45;2.90;;;;;;;6.13;92.08;96789.03;4534845;31;20101;-75
2022/04/09 10:12:23;;;;;;;7.95;3.28;;;;;;;6.22;92.69;96805.72;4535148;31;20505;-75
2022/04/09 10:14:54;;;;;;;8.45;3.70;;;;;;;6.32;93.75;96824.91;4535025;31;20106;-75
2022/04/09 10:17:22;;;;;;;8.95;3.70;;;;;;;6.45;91.88;96828.56;4507043;31;20111;-75
2022/04/09 10:19:57;;;;;;;7.97;3.03;;;;;;;6.34;92.58;96823.09;4535179;31;20142;-75
2022/04/09 10:22:27;;;;;;;9.80;3.83;;;;;;;6.32;92.80;96823.19;4520670;31;20080;-75
2022/04/09 10:24:56;;;;;;;8.23;3.40;;;;;;;6.09;91.29;96851.53;4520281;31;20475;-75
2022/04/09 10:27:42;;;;;;;9.05;3.40;;;;;;;6.11;92.49;96869.41;4521261;31;20091;-75
2022/04/09 10:30:14;;;;;;;8.50;3.80;;;;;;;6.55;90.17;96878.50;4534975;31;20487;-75
2022/04/09 10:32:52;;;;;;;7.93;3.30;;;;;;;6.46;90.22;96883.22;4520588;31;20561;-75
2022/04/09 10:35:31;;;;;;;7.70;3.37;;;;;;;6.27;90.13;96889.16;4534784;31;20154;-75
2022/04/09 10:38:10;;;;;;;8.10;3.20;;;;;;;6.27;89.77;96919.91;4534584;31;20402;-75
2022/04/09 10:41:02;;;;;;;8.75;3.55;;;;;;;6.22;90.32;96911.56;4534928;31;20087;-75
2022/04/09 10:43:40;;;;;;;7.87;3.12;;;;;;;6.30;89.78;96927.44;4534110;31;20535;-75
2022/04/09 10:46:09;;;;;;;7.57;2.95;;;;;;;6.38;89.27;96920.28;4520044;31;20182;-75
2022/04/09 10:48:41;;;;;;;8.40;3.85;;;;;;;6.11;89.57;96892.44;4534778;31;20509;-75
2022/04/09 10:51:11;;;;;;;9.15;3.87;;;;;;;5.99;91.65;96921.97;4530041;31;144217;-75
2022/04/09 10:53:43;;;;;;;8.75;3.65;;;;;;;6.08;88.65;96931.84;4520659;31;20146;-75
2022/04/09 10:56:24;;;;;;;9.68;3.83;;;;;;;6.20;90.26;96925.34;4519831;31;20114;-75
2022/04/09 10:59:12;;;;;;;10.40;4.95;;;;;;;5.96;89.71;96945.16;4520357;31;20478;-75
2022/04/09 11:01:51;;;;;;;14.75;5.40;;;;;;;6.22;91.16;96931.25;4534695;31;20463;-75
2022/04/09 11:04:37;;;;;;;11.45;5.45;;;;;;;6.15;92.37;96961.38;4534596;31;20083;-75
2022/04/09 11:07:17;;;;;;;12.65;6.40;;;;;;;6.31;91.87;96967.53;4534189;31;20091;-75
2022/04/09 11:10:14;;;;;;;15.35;7.37;;;;;;;6.51;91.13;96973.53;4534535;31;20105;-75
2022/04/09 11:12:43;;;;;;;14.85;6.87;;;;;;;6.31;90.12;96975.22;4531479;31;20444;-75
2022/04/09 11:15:15;;;;;;;16.37;8.25;;;;;;;5.90;92.08;96984.63;4534339;31;20080;-75
2022/04/09 11:17:45;;;;;;;17.37;7.78;;;;;;;5.88;92.65;97000.94;4506650;31;20122;-75
2022/04/09 11:20:14;;;;;;;18.85;8.73;;;;;;;5.91;91.34;97022.13;4519873;31;20122;-75
2022/04/09 11:22:43;;;;;;;19.77;8.93;;;;;;;6.03;90.99;97039.56;4534238;31;20162;-75
2022/04/09 11:25:24;;;;;;;18.08;8.77;;;;;;;6.00;92.02;97059.34;4519567;31;20076;-75
2022/04/09 11:27:52;;;;;;;17.23;8.50;;;;;;;5.80;92.03;97049.88;4519894;31;20155;-75
2022/04/09 11:30:20;;;;;;;20.88;10.02;;;;;;;5.85;93.42;97036.87;4534145;31;20135;-75
2022/04/09 11:32:47;;;;;;;21.35;10.45;;;;;;;5.73;94.63;97045.88;4534029;31;20162;-75
2022/04/09 11:35:17;;;;;;;17.85;8.65;;;;;;;5.95;93.76;97043.31;4533534;31;20105;-75
2022/04/09 11:37:50;;;;;;;16.70;7.62;;;;;;;5.71;93.99;97047.66;4534126;31;20438;-75
2022/04/09 11:40:20;;;;;;;21.42;9.65;;;;;;;5.62;93.31;97037.78;4533940;31;20410;-75